Time;durP1;ratioP1;P1;durP2;ratioP2;P2;SDS_P1;SDS_P2;PMS_P1;PMS_P2;Temp;Humidity;BMP_temperature;BMP_pressure;BME280_temperature;BME280_humidity;BME280_pressure;Samples;Min_cycle;Max_cycle;Signal;HPM_P1;HPM_P2
2022/07/25 00:01:08;;;;;;;13.23;11.93;;;;;;;;;;5093411;28;20476;-71
2022/07/25 00:03:36;;;;;;;14.93;13.40;;;;;;;;;;5093187;28;20466;-71
2022/07/25 00:06:03;;;;;;;17.00;13.50;;;;;;;;;;5093088;28;20451;-71
2022/07/25 00:08:31;;;;;;;19.57;12.20;;;;;;;;;;5093067;28;20454;-71
2022/07/25 00:10:58;;;;;;;14.80;12.83;;;;;;;;;;5093349;28;20951;-71
2022/07/25 00:13:25;;;;;;;14.00;12.60;;;;;;;;;;5097109;28;20491;-71
2022/07/25 00:15:52;;;;;;;14.30;12.80;;;;;;;;;;5097228;28;20458;-71
2022/07/25 00:18:19;;;;;;;12.90;11.67;;;;;;;;;;5097401;28;20939;-71
2022/07/25 00:20:47;;;;;;;14.03;12.57;;;;;;;;;;5097279;28;20861;-71
2022/07/25 00:23:14;;;;;;;14.00;11.80;;;;;;;;;;5096980;28;20474;-71
2022/07/25 00:25:42;;;;;;;14.57;13.07;;;;;;;;;;5097032;28;20451;-71
2022/07/25 00:28:09;;;;;;;28.80;13.57;;;;;;;;;;5097105;28;20447;-71
2022/07/25 00:30:36;;;;;;;13.57;12.17;;;;;;;;;;5097185;28;20427;-71
2022/07/25 00:33:03;;;;;;;13.20;11.90;;;;;;;;;;5096833;28;20483;-71
2022/07/25 00:35:30;;;;;;;14.93;13.43;;;;;;;;;;5096738;28;20832;-71
2022/07/25 00:37:58;;;;;;;17.60;14.60;;;;;;;;;;5097020;28;20461;-71
2022/07/25 00:40:25;;;;;;;14.10;12.57;;;;;;;;;;5096249;28;20453;-71
2022/07/25 00:42:53;;;;;;;18.80;14.77;;;;;;;;;;5096647;28;20479;-71
2022/07/25 00:45:20;;;;;;;14.23;12.83;;;;;;;;;;5096910;28;20822;-71
2022/07/25 00:47:47;;;;;;;15.50;13.90;;;;;;;;;;5096802;28;20493;-71
2022/07/25 00:50:14;;;;;;;14.77;13.20;;;;;;;;;;5096906;28;20441;-71
2022/07/25 00:52:41;;;;;;;16.63;13.70;;;;;;;;;;5096546;28;20477;-71
2022/07/25 00:55:10;;;;;;;16.77;14.00;;;;;;;;;;5096604;28;20446;-71
2022/07/25 00:57:37;;;;;;;16.47;13.40;;;;;;;;;;5096604;28;21000;-71
2022/07/25 01:00:06;;;;;;;16.93;15.03;;;;;;;;;;5096491;28;20461;-71
2022/07/25 01:02:33;;;;;;;19.50;15.50;;;;;;;;;;5096446;28;20964;-71
2022/07/25 01:05:00;;;;;;;16.20;11.73;;;;;;;;;;5096294;28;20974;-71
2022/07/25 01:07:27;;;;;;;14.97;13.57;;;;;;;;;;5096021;28;20458;-71
2022/07/25 01:09:54;;;;;;;15.50;13.93;;;;;;;;;;5096384;28;20939;-71
2022/07/25 01:12:23;;;;;;;14.33;12.93;;;;;;;;;;5096223;28;20480;-71
2022/07/25 01:14:50;;;;;;;14.83;13.13;;;;;;;;;;5096316;28;20493;-71
2022/07/25 01:17:17;;;;;;;13.97;12.50;;;;;;;;;;5096203;28;20478;-71
2022/07/25 01:19:45;;;;;;;12.57;11.47;;;;;;;;;;5096096;28;20461;-71
2022/07/25 01:22:13;;;;;;;13.23;11.67;;;;;;;;;;5095705;28;20902;-72
2022/07/25 01:24:40;;;;;;;19.73;11.80;;;;;;;;;;5095269;28;20457;-71
2022/07/25 01:27:07;;;;;;;15.10;13.50;;;;;;;;;;5095763;28;20458;-71
2022/07/25 01:29:34;;;;;;;15.57;13.10;;;;;;;;;;5095926;28;20928;-71
2022/07/25 01:32:02;;;;;;;13.93;12.53;;;;;;;;;;5095853;28;20471;-71
2022/07/25 01:34:29;;;;;;;17.80;13.50;;;;;;;;;;5095435;28;20486;-71
2022/07/25 01:36:56;;;;;;;15.17;13.67;;;;;;;;;;5095517;28;20441;-71
2022/07/25 01:39:24;;;;;;;15.43;12.43;;;;;;;;;;5095584;28;20827;-71
2022/07/25 01:41:51;;;;;;;15.03;12.87;;;;;;;;;;5095406;28;20467;-71
2022/07/25 01:44:18;;;;;;;15.70;13.80;;;;;;;;;;5095337;28;20480;-71
2022/07/25 01:46:46;;;;;;;16.90;15.10;;;;;;;;;;5095644;28;20454;-71
2022/07/25 01:49:13;;;;;;;15.77;14.23;;;;;;;;;;5095536;28;20443;-71
2022/07/25 01:51:40;;;;;;;15.50;13.90;;;;;;;;;;5095476;28;20815;-71
2022/07/25 01:54:07;;;;;;;18.90;13.60;;;;;;;;;;5095436;28;20489;-71
2022/07/25 01:56:35;;;;;;;20.33;15.57;;;;;;;;;;5095625;28;20453;-71
2022/07/25 01:59:02;;;;;;;17.73;15.93;;;;;;;;;;5095430;28;20936;-71
2022/07/25 02:01:30;;;;;;;17.90;16.00;;;;;;;;;;5095026;28;20863;-71
2022/07/25 02:03:57;;;;;;;18.93;15.87;;;;;;;;;;5094981;28;20447;-71
2022/07/25 02:06:24;;;;;;;22.53;17.70;;;;;;;;;;5095156;28;20462;-71
2022/07/25 02:08:51;;;;;;;18.33;16.53;;;;;;;;;;5095256;28;20443;-71
2022/07/25 02:11:18;;;;;;;18.90;16.90;;;;;;;;;;5095201;28;20461;-71
2022/07/25 02:13:46;;;;;;;17.43;15.63;;;;;;;;;;5094910;28;20493;-71
2022/07/25 02:16:14;;;;;;;18.53;16.53;;;;;;;;;;5094685;28;20458;-71
2022/07/25 02:18:41;;;;;;;17.30;14.20;;;;;;;;;;5094726;28;20439;-71
2022/07/25 02:21:09;;;;;;;17.03;15.27;;;;;;;;;;5094690;28;20466;-71
2022/07/25 02:23:36;;;;;;;17.57;15.67;;;;;;;;;;5094536;28;20524;-71
2022/07/25 02:26:04;;;;;;;18.53;15.83;;;;;;;;;;5094867;28;20851;-71
2022/07/25 02:28:31;;;;;;;20.47;15.57;;;;;;;;;;5094868;28;20455;-71
2022/07/25 02:30:59;;;;;;;15.87;14.27;;;;;;;;;;5094421;28;20457;-71
2022/07/25 02:33:27;;;;;;;16.87;15.10;;;;;;;;;;5094331;28;20509;-71
2022/07/25 02:35:54;;;;;;;18.90;16.47;;;;;;;;;;5093554;28;20446;-71
2022/07/25 02:38:21;;;;;;;18.80;16.07;;;;;;;;;;5094627;28;20450;-71
2022/07/25 02:40:49;;;;;;;20.67;15.00;;;;;;;;;;5094192;28;20453;-71
2022/07/25 02:43:16;;;;;;;19.70;16.23;;;;;;;;;;5094062;28;20486;-71
2022/07/25 02:45:43;;;;;;;21.97;16.10;;;;;;;;;;5094322;28;20959;-71
2022/07/25 02:48:12;;;;;;;18.20;15.70;;;;;;;;;;5094256;28;20454;-71
2022/07/25 02:50:39;;;;;;;16.93;14.57;;;;;;;;;;5094326;28;20449;-71
2022/07/25 02:53:06;;;;;;;21.00;16.73;;;;;;;;;;5094318;28;20826;-71
2022/07/25 02:55:33;;;;;;;21.63;15.10;;;;;;;;;;5094268;28;20451;-71
2022/07/25 02:58:00;;;;;;;15.83;14.07;;;;;;;;;;5093697;28;20470;-71
2022/07/25 03:00:28;;;;;;;24.63;16.40;;;;;;;;;;5093804;28;20824;-71
2022/07/25 03:02:55;;;;;;;17.00;14.83;;;;;;;;;;5094128;28;20975;-71
2022/07/25 03:05:23;;;;;;;18.20;14.87;;;;;;;;;;5094179;28;20487;-71
2022/07/25 03:07:50;;;;;;;14.30;12.80;;;;;;;;;;5094232;28;20453;-71
2022/07/25 03:10:17;;;;;;;15.73;14.10;;;;;;;;;;5093922;28;20457;-71
2022/07/25 03:12:45;;;;;;;15.03;13.30;;;;;;;;;;5093964;28;20971;-71
2022/07/25 03:15:12;;;;;;;16.57;13.43;;;;;;;;;;5093866;28;20539;-71
2022/07/25 03:17:40;;;;;;;18.10;13.80;;;;;;;;;;5093862;28;20474;-71
2022/07/25 03:20:07;;;;;;;15.30;13.70;;;;;;;;;;5093240;28;20454;-71
2022/07/25 03:22:36;;;;;;;16.30;13.73;;;;;;;;;;5093810;28;20502;-71
2022/07/25 03:25:04;;;;;;;18.70;16.03;;;;;;;;;;5093791;28;20443;-71
2022/07/25 03:27:31;;;;;;;18.20;14.40;;;;;;;;;;5093578;28;20458;-71
2022/07/25 03:29:58;;;;;;;22.00;14.60;;;;;;;;;;5093966;28;20458;-71
2022/07/25 03:32:25;;;;;;;16.10;12.77;;;;;;;;;;5093668;28;20466;-71
2022/07/25 03:34:52;;;;;;;15.70;14.10;;;;;;;;;;5093478;28;20482;-71
2022/07/25 03:37:19;;;;;;;22.77;15.10;;;;;;;;;;5093753;28;20948;-71
2022/07/25 03:39:48;;;;;;;15.30;13.73;;;;;;;;;;5093493;28;20812;-71
2022/07/25 03:42:15;;;;;;;14.77;12.87;;;;;;;;;;5093440;28;20467;-71
2022/07/25 03:44:42;;;;;;;19.07;13.27;;;;;;;;;;5093341;28;20446;-71
2022/07/25 03:47:09;;;;;;;13.87;12.47;;;;;;;;;;5093312;28;20478;-71
2022/07/25 03:49:36;;;;;;;17.37;14.83;;;;;;;;;;5093244;28;20450;-71
2022/07/25 03:52:04;;;;;;;13.90;12.60;;;;;;;;;;5093431;28;21025;-71
2022/07/25 03:54:31;;;;;;;18.43;13.60;;;;;;;;;;5093303;28;20489;-71
2022/07/25 03:56:59;;;;;;;16.43;14.60;;;;;;;;;;5093665;28;20948;-71
2022/07/25 03:59:26;;;;;;;19.23;14.80;;;;;;;;;;5093508;28;20439;-71
2022/07/25 04:01:53;;;;;;;15.57;13.97;;;;;;;;;;5093072;28;20483;-71
2022/07/25 04:04:20;;;;;;;16.60;14.77;;;;;;;;;;5093373;28;20963;-71
2022/07/25 04:06:48;;;;;;;15.30;12.97;;;;;;;;;;5093175;28;20462;-71
2022/07/25 04:09:15;;;;;;;15.17;13.47;;;;;;;;;;5093018;28;20455;-71
2022/07/25 04:11:43;;;;;;;15.40;13.53;;;;;;;;;;5093300;28;20470;-71
2022/07/25 04:14:11;;;;;;;14.80;13.23;;;;;;;;;;5092840;28;20486;-71
2022/07/25 04:16:39;;;;;;;17.93;13.67;;;;;;;;;;5092994;28;20451;-71
2022/07/25 04:19:06;;;;;;;16.83;12.97;;;;;;;;;;5093050;28;20956;-71
2022/07/25 04:21:34;;;;;;;15.97;14.27;;;;;;;;;;5093143;28;20889;-71
2022/07/25 04:24:01;;;;;;;15.50;13.20;;;;;;;;;;5092987;28;20458;-71
2022/07/25 04:26:28;;;;;;;16.47;13.33;;;;;;;;;;5093253;28;20461;-71
2022/07/25 04:28:56;;;;;;;15.70;14.10;;;;;;;;;;5093217;28;20462;-71
2022/07/25 04:31:25;;;;;;;13.67;11.90;;;;;;;;;;5093527;28;20561;-71
2022/07/25 04:33:52;;;;;;;16.00;11.80;;;;;;;;;;5092821;28;20471;-71
2022/07/25 04:36:19;;;;;;;11.77;10.67;;;;;;;;;;5093083;28;20462;-73
2022/07/25 04:38:46;;;;;;;12.83;11.50;;;;;;;;;;5092976;28;20509;-71
2022/07/25 04:41:13;;;;;;;12.57;11.37;;;;;;;;;;5093156;28;20447;-72
2022/07/25 04:43:40;;;;;;;13.63;12.23;;;;;;;;;;5092702;28;20853;-72
2022/07/25 04:46:07;;;;;;;12.17;10.93;;;;;;;;;;5093027;28;20826;-72
2022/07/25 04:48:36;;;;;;;12.30;11.20;;;;;;;;;;5092555;28;20458;-72
2022/07/25 04:51:03;;;;;;;12.10;10.83;;;;;;;;;;5093167;28;20446;-72
2022/07/25 04:53:30;;;;;;;12.30;10.77;;;;;;;;;;5092802;28;20866;-72
2022/07/25 04:55:57;;;;;;;12.70;11.40;;;;;;;;;;5092623;28;20482;-72
2022/07/25 04:58:24;;;;;;;11.03;10.00;;;;;;;;;;5093460;28;20455;-72
2022/07/25 05:00:51;;;;;;;11.93;10.57;;;;;;;;;;5096302;28;20952;-72
2022/07/25 05:03:19;;;;;;;11.57;10.57;;;;;;;;;;5096130;28;20477;-72
2022/07/25 05:05:47;;;;;;;10.50;9.70;;;;;;;;;;5096197;28;20952;-72
2022/07/25 05:08:14;;;;;;;11.60;10.60;;;;;;;;;;5096211;28;20462;-72
2022/07/25 05:10:41;;;;;;;11.27;10.27;;;;;;;;;;5096180;28;20541;-72
2022/07/25 05:13:08;;;;;;;11.57;10.57;;;;;;;;;;5095917;28;20470;-72
2022/07/25 05:15:36;;;;;;;11.50;10.50;;;;;;;;;;5095831;28;20486;-72
2022/07/25 05:18:03;;;;;;;11.27;10.30;;;;;;;;;;5095863;28;20466;-73
2022/07/25 05:20:30;;;;;;;11.93;10.93;;;;;;;;;;5096130;28;20955;-73
2022/07/25 05:22:58;;;;;;;10.47;9.40;;;;;;;;;;5095947;28;20494;-73
2022/07/25 05:25:26;;;;;;;10.53;9.73;;;;;;;;;;5095790;28;20528;-72
2022/07/25 05:27:54;;;;;;;11.00;10.03;;;;;;;;;;5095670;28;20454;-72
2022/07/25 05:30:21;;;;;;;10.23;9.43;;;;;;;;;;5096034;28;20461;-72
2022/07/25 05:32:48;;;;;;;10.53;9.73;;;;;;;;;;5095676;28;20462;-72
2022/07/25 05:35:16;;;;;;;11.73;9.90;;;;;;;;;;5095438;28;20894;-72
2022/07/25 05:37:43;;;;;;;11.13;10.17;;;;;;;;;;5095899;28;20457;-72
2022/07/25 05:40:12;;;;;;;11.97;10.77;;;;;;;;;;5095680;28;20454;-72
2022/07/25 05:42:39;;;;;;;10.57;9.57;;;;;;;;;;5095406;28;20565;-73
2022/07/25 05:45:06;;;;;;;10.43;9.50;;;;;;;;;;5095298;28;20443;-72
2022/07/25 05:47:34;;;;;;;11.03;9.93;;;;;;;;;;5095563;28;20454;-73
2022/07/25 05:50:01;;;;;;;10.23;9.37;;;;;;;;;;5095431;28;20438;-73
2022/07/25 05:52:28;;;;;;;10.60;9.40;;;;;;;;;;5095395;28;20596;-73
2022/07/25 05:54:55;;;;;;;11.63;9.70;;;;;;;;;;5095219;28;20489;-72
2022/07/25 05:57:23;;;;;;;11.07;10.07;;;;;;;;;;5095185;28;20454;-73
2022/07/25 05:59:51;;;;;;;10.67;9.87;;;;;;;;;;5095198;28;20457;-73
2022/07/25 06:02:18;;;;;;;9.97;9.17;;;;;;;;;;5095158;28;20466;-73
2022/07/25 06:04:45;;;;;;;11.20;10.30;;;;;;;;;;5095019;28;20446;-72
2022/07/25 06:07:12;;;;;;;10.60;9.60;;;;;;;;;;5094963;28;20462;-72
2022/07/25 06:09:39;;;;;;;9.93;9.10;;;;;;;;;;5094788;28;20446;-72
2022/07/25 06:12:06;;;;;;;11.23;10.13;;;;;;;;;;5094735;28;20466;-72
2022/07/25 06:14:35;;;;;;;10.77;9.73;;;;;;;;;;5094896;28;20485;-72
2022/07/25 06:17:02;;;;;;;10.73;9.83;;;;;;;;;;5094988;28;20476;-72
2022/07/25 06:19:29;;;;;;;10.43;9.53;;;;;;;;;;5094865;28;20970;-72
2022/07/25 06:21:56;;;;;;;11.17;10.17;;;;;;;;;;5095045;28;20477;-72
2022/07/25 06:24:23;;;;;;;11.30;10.40;;;;;;;;;;5094520;28;20970;-72
2022/07/25 06:26:50;;;;;;;11.77;10.27;;;;;;;;;;5094777;28;20457;-72
2022/07/25 06:29:18;;;;;;;10.43;9.63;;;;;;;;;;5094809;28;20204;-72
2022/07/25 06:31:46;;;;;;;11.20;10.30;;;;;;;;;;5094834;28;20239;-72
2022/07/25 06:34:13;;;;;;;10.73;9.93;;;;;;;;;;5094422;28;20230;-72
2022/07/25 06:36:40;;;;;;;11.43;10.43;;;;;;;;;;5094603;28;20231;-72
2022/07/25 06:39:08;;;;;;;11.30;10.30;;;;;;;;;;5094320;28;20211;-72
2022/07/25 06:41:35;;;;;;;10.43;9.13;;;;;;;;;;5094429;28;20258;-72
2022/07/25 06:44:02;;;;;;;15.13;9.40;;;;;;;;;;5094079;28;20226;-72
2022/07/25 06:46:31;;;;;;;9.77;8.98;;;;;;;;;;5094289;28;20204;-70
2022/07/25 06:49:00;;;;;;;9.77;8.88;;;;;;;;;;5094380;28;20208;-70
2022/07/25 06:51:27;;;;;;;9.77;8.95;;;;;;;;;;5094249;28;20588;-70
2022/07/25 06:53:55;;;;;;;9.75;9.05;;;;;;;;;;5094118;28;20200;-70
2022/07/25 06:56:22;;;;;;;11.13;10.32;;;;;;;;;;5093915;28;20239;-70
2022/07/25 06:58:49;;;;;;;9.23;8.55;;;;;;;;;;5093972;28;20216;-70
2022/07/25 07:01:16;;;;;;;9.90;9.10;;;;;;;;;;5093902;28;20204;-72
2022/07/25 07:03:44;;;;;;;10.07;9.33;;;;;;;;;;5094021;28;20224;-72
2022/07/25 07:06:12;;;;;;;9.63;8.88;;;;;;;;;;5093831;28;20661;-71
2022/07/25 07:08:39;;;;;;;9.95;8.93;;;;;;;;;;5094211;28;20215;-70
2022/07/25 07:11:07;;;;;;;10.48;9.48;;;;;;;;;;5093776;28;20212;-70
2022/07/25 07:13:34;;;;;;;10.98;8.68;;;;;;;;;;5093617;28;20735;-69
2022/07/25 07:16:02;;;;;;;10.38;9.40;;;;;;;;;;5093730;28;20700;-70
2022/07/25 07:18:29;;;;;;;11.20;10.18;;;;;;;;;;5093881;28;20685;-70
2022/07/25 07:20:56;;;;;;;10.88;9.98;;;;;;;;;;5093336;28;20235;-70
2022/07/25 07:23:25;;;;;;;8.75;8.05;;;;;;;;;;5093726;28;20228;-70
2022/07/25 07:25:52;;;;;;;9.82;9.02;;;;;;;;;;5093684;28;20215;-70
2022/07/25 07:28:19;;;;;;;9.68;8.90;;;;;;;;;;5093502;28;20215;-70
2022/07/25 07:30:46;;;;;;;10.68;9.05;;;;;;;;;;5093472;28;20688;-70
2022/07/25 07:33:14;;;;;;;11.32;10.27;;;;;;;;;;5093600;28;20705;-70
2022/07/25 07:35:41;;;;;;;10.15;9.38;;;;;;;;;;5093069;28;20228;-70
2022/07/25 07:38:08;;;;;;;10.50;9.63;;;;;;;;;;5093462;28;20597;-70
2022/07/25 07:40:36;;;;;;;10.60;9.80;;;;;;;;;;5093181;28;20211;-70
2022/07/25 07:43:05;;;;;;;10.27;9.57;;;;;;;;;;5093182;28;20240;-71
2022/07/25 07:45:32;;;;;;;10.27;9.48;;;;;;;;;;5093048;28;20295;-70
2022/07/25 07:47:59;;;;;;;11.40;10.43;;;;;;;;;;5093333;28;20254;-70
2022/07/25 07:50:27;;;;;;;10.32;9.52;;;;;;;;;;5093492;28;20222;-70
2022/07/25 07:52:55;;;;;;;11.10;10.00;;;;;;;;;;5093498;28;20235;-70
2022/07/25 07:58:09;;;;;;;10.55;9.65;;;;;;;;;;5093181;28;20241;-70
2022/07/25 08:00:38;;;;;;;10.85;10.10;;;;;;;;;;5093110;28;20215;-70
2022/07/25 08:03:07;;;;;;;11.25;10.20;;;;;;;;;;5093022;28;20235;-70
2022/07/25 08:05:35;;;;;;;10.07;9.27;;;;;;;;;;5093330;28;20204;-70
2022/07/25 08:08:02;;;;;;;14.13;10.40;;;;;;;;;;5093158;28;20218;-70
2022/07/25 08:10:30;;;;;;;10.23;9.35;;;;;;;;;;5092865;28;20695;-70
2022/07/25 08:12:58;;;;;;;10.82;9.88;;;;;;;;;;5093021;28;20228;-70
2022/07/25 08:15:26;;;;;;;10.80;9.90;;;;;;;;;;5092894;28;20251;-70
2022/07/25 08:17:54;;;;;;;11.47;10.27;;;;;;;;;;5093295;28;20703;-70
2022/07/25 08:20:22;;;;;;;10.93;10.03;;;;;;;;;;5093257;28;20215;-72
2022/07/25 08:22:50;;;;;;;11.37;9.97;;;;;;;;;;5093021;28;20645;-72
2022/07/25 08:25:17;;;;;;;11.20;10.00;;;;;;;;;;5092782;28;20208;-73
2022/07/25 08:27:45;;;;;;;12.33;10.90;;;;;;;;;;5093212;28;20446;-73
2022/07/25 08:30:13;;;;;;;10.97;9.90;;;;;;;;;;5093014;28;20231;-72
2022/07/25 08:32:52;;;;;;;11.50;10.40;;;;;;;;;;5092937;28;20235;-72
2022/07/25 08:35:19;;;;;;;10.60;9.63;;;;;;;;;;5096479;28;20465;-72
2022/07/25 08:37:46;;;;;;;10.60;9.83;;;;;;;;;;5096844;28;20460;-72
2022/07/25 08:40:14;;;;;;;10.93;10.13;;;;;;;;;;5096510;28;20445;-72
2022/07/25 08:42:41;;;;;;;11.23;10.43;;;;;;;;;;5096531;28;20854;-72
2022/07/25 08:45:09;;;;;;;12.07;10.80;;;;;;;;;;5096471;28;20208;-72
2022/07/25 08:47:36;;;;;;;11.50;10.47;;;;;;;;;;5096889;28;20204;-72
2022/07/25 08:50:07;;;;;;;10.97;9.93;;;;;;;;;;5096469;28;20216;-72
2022/07/25 08:52:35;;;;;;;11.73;10.83;;;;;;;;;;5096343;28;20574;-72
2022/07/25 08:55:02;;;;;;;12.23;11.13;;;;;;;;;;5096311;28;20503;-72
2022/07/25 08:57:29;;;;;;;11.97;11.07;;;;;;;;;;5096319;28;20453;-72
2022/07/25 08:59:57;;;;;;;11.63;10.63;;;;;;;;;;5096267;28;20460;-72
2022/07/25 09:02:24;;;;;;;10.47;9.67;;;;;;;;;;5096232;28;20499;-72
2022/07/25 09:04:52;;;;;;;11.40;10.40;;;;;;;;;;5096257;28;20480;-72
2022/07/25 09:07:29;;;;;;;11.67;10.67;;;;;;;;;;5096281;28;20814;-72
2022/07/25 09:09:56;;;;;;;10.40;9.50;;;;;;;;;;5096198;28;20450;-72
2022/07/25 09:12:25;;;;;;;10.93;10.03;;;;;;;;;;5096130;28;20470;-72
2022/07/25 09:14:53;;;;;;;11.50;10.50;;;;;;;;;;5095951;28;20452;-72
2022/07/25 09:17:20;;;;;;;12.50;11.07;;;;;;;;;;5096082;28;20264;-72
2022/07/25 09:19:52;;;;;;;10.73;9.73;;;;;;;;;;5096122;28;20621;-71
2022/07/25 09:22:21;;;;;;;12.47;11.43;;;;;;;;;;5096406;28;20236;-71
2022/07/25 09:24:48;;;;;;;10.57;9.77;;;;;;;;;;5095752;28;20577;-70
2022/07/25 09:27:17;;;;;;;11.10;10.10;;;;;;;;;;5096062;28;20208;-70
2022/07/25 09:29:44;;;;;;;11.00;10.20;;;;;;;;;;5095865;28;20549;-70
2022/07/25 09:32:15;;;;;;;10.20;9.43;;;;;;;;;;5095683;28;20697;-70
2022/07/25 09:34:43;;;;;;;11.00;10.00;;;;;;;;;;5095850;28;20211;-70
2022/07/25 09:37:11;;;;;;;12.13;11.13;;;;;;;;;;5095782;28;20232;-70
2022/07/25 09:39:43;;;;;;;10.60;9.70;;;;;;;;;;5095690;28;20626;-70
2022/07/25 09:42:20;;;;;;;10.77;9.87;;;;;;;;;;5095214;28;20228;-70
2022/07/25 09:45:01;;;;;;;10.63;9.73;;;;;;;;;;5094859;28;20203;-70
2022/07/25 09:47:29;;;;;;;10.60;9.70;;;;;;;;;;5095316;28;20211;-71
2022/07/25 09:49:56;;;;;;;9.98;9.27;;;;;;;;;;5095668;28;20633;-71
2022/07/25 09:52:24;;;;;;;10.38;9.68;;;;;;;;;;5095491;28;20238;-70
2022/07/25 09:54:53;;;;;;;10.20;9.25;;;;;;;;;;5095155;28;20788;-71
2022/07/25 09:57:22;;;;;;;12.13;10.82;;;;;;;;;;5095304;28;20581;-71
2022/07/25 09:59:49;;;;;;;11.02;10.07;;;;;;;;;;5095218;28;20215;-71
2022/07/25 10:02:22;;;;;;;10.98;10.07;;;;;;;;;;5095030;28;20267;-71
2022/07/25 10:04:53;;;;;;;11.93;10.90;;;;;;;;;;5095048;28;20207;-70
2022/07/25 10:07:22;;;;;;;13.70;10.00;;;;;;;;;;5094967;28;20299;-70
2022/07/25 10:09:50;;;;;;;10.83;9.80;;;;;;;;;;5095197;28;20712;-70
2022/07/25 10:12:21;;;;;;;11.67;10.87;;;;;;;;;;5095036;28;20231;-70
2022/07/25 10:15:03;;;;;;;11.65;10.57;;;;;;;;;;5094858;28;20700;-70
2022/07/25 10:17:30;;;;;;;10.20;9.33;;;;;;;;;;5094959;28;20228;-70
2022/07/25 10:19:57;;;;;;;12.23;11.13;;;;;;;;;;5094970;28;20212;-70
2022/07/25 10:22:24;;;;;;;10.80;9.80;;;;;;;;;;5094766;28;20626;-70
2022/07/25 10:24:51;;;;;;;16.23;10.63;;;;;;;;;;5094747;28;20207;-70
2022/07/25 10:27:23;;;;;;;10.20;9.40;;;;;;;;;;5094551;28;20203;-70
2022/07/25 10:29:53;;;;;;;10.50;9.70;;;;;;;;;;5094687;28;20196;-70
2022/07/25 10:32:20;;;;;;;9.95;9.25;;;;;;;;;;5094382;28;20235;-71
2022/07/25 10:34:52;;;;;;;11.40;10.40;;;;;;;;;;5094710;28;20680;-70
2022/07/25 10:37:20;;;;;;;11.27;10.37;;;;;;;;;;5094839;28;20216;-71
2022/07/25 10:39:48;;;;;;;9.50;8.70;;;;;;;;;;5094150;28;20302;-70
2022/07/25 10:42:16;;;;;;;11.17;10.17;;;;;;;;;;5094302;28;20228;-70
2022/07/25 10:44:45;;;;;;;11.10;10.20;;;;;;;;;;5094602;28;20199;-70
2022/07/25 10:47:13;;;;;;;9.17;8.47;;;;;;;;;;5094567;28;20571;-71
2022/07/25 10:49:41;;;;;;;10.60;9.80;;;;;;;;;;5094469;28;20580;-71
2022/07/25 10:52:14;;;;;;;10.88;9.88;;;;;;;;;;5094068;28;20236;-71
2022/07/25 10:54:52;;;;;;;11.10;10.10;;;;;;;;;;5094398;28;20716;-70
2022/07/25 10:57:19;;;;;;;24.58;9.63;;;;;;;;;;5093070;28;20700;-70
2022/07/25 10:59:48;;;;;;;11.02;9.73;;;;;;;;;;5094374;28;20216;-70
2022/07/25 11:02:16;;;;;;;9.68;8.82;;;;;;;;;;5093910;28;20301;-70
2022/07/25 11:04:43;;;;;;;9.45;8.63;;;;;;;;;;5094015;28;20684;-70
2022/07/25 11:07:12;;;;;;;10.60;9.65;;;;;;;;;;5094141;28;20211;-70
2022/07/25 11:09:40;;;;;;;9.87;9.07;;;;;;;;;;5094116;28;20573;-71
2022/07/25 11:12:08;;;;;;;13.63;9.37;;;;;;;;;;5093639;28;20223;-71
2022/07/25 11:14:36;;;;;;;11.80;10.80;;;;;;;;;;5093799;28;20203;-71
2022/07/25 11:17:15;;;;;;;10.17;9.17;;;;;;;;;;5093802;28;20591;-71
2022/07/25 11:19:43;;;;;;;10.60;9.80;;;;;;;;;;5093755;28;20214;-71
2022/07/25 11:22:10;;;;;;;10.47;9.50;;;;;;;;;;5093489;28;20263;-71
2022/07/25 11:24:39;;;;;;;10.47;9.67;;;;;;;;;;5093794;28;20684;-71
2022/07/25 11:27:06;;;;;;;10.23;9.43;;;;;;;;;;5093578;28;20673;-71
2022/07/25 11:29:34;;;;;;;10.27;9.47;;;;;;;;;;5093688;28;20215;-71
2022/07/25 11:32:02;;;;;;;10.30;9.40;;;;;;;;;;5093568;28;20227;-71
2022/07/25 11:34:32;;;;;;;10.47;9.63;;;;;;;;;;5093539;28;20208;-71
2022/07/25 11:37:00;;;;;;;9.83;9.03;;;;;;;;;;5093664;28;20592;-71
2022/07/25 11:39:27;;;;;;;12.03;10.23;;;;;;;;;;5093239;28;20223;-70
2022/07/25 11:42:01;;;;;;;10.00;9.10;;;;;;;;;;5093644;28;20479;-71
2022/07/25 11:44:35;;;;;;;10.60;9.80;;;;;;;;;;5093134;28;20253;-71
2022/07/25 11:47:03;;;;;;;10.53;7.60;;;;;;;;;;5093762;28;20192;-71
2022/07/25 11:49:31;;;;;;;9.63;8.73;;;;;;;;;;5093426;28;20215;-71
2022/07/25 11:51:58;;;;;;;8.40;7.80;;;;;;;;;;5093431;28;20232;-71
2022/07/25 11:54:25;;;;;;;8.97;8.17;;;;;;;;;;5093322;28;20446;-71
2022/07/25 11:56:52;;;;;;;9.57;8.87;;;;;;;;;;5093188;28;20481;-71
2022/07/25 11:59:19;;;;;;;8.50;7.80;;;;;;;;;;5093185;28;20265;-71
2022/07/25 12:01:47;;;;;;;9.00;8.20;;;;;;;;;;5093176;28;20470;-71
2022/07/25 12:04:16;;;;;;;9.53;8.70;;;;;;;;;;5093215;28;20242;-71
2022/07/25 12:06:45;;;;;;;9.13;8.23;;;;;;;;;;5093335;28;20810;-71
2022/07/25 12:09:13;;;;;;;10.83;9.80;;;;;;;;;;5097281;28;20624;-71
2022/07/25 12:11:40;;;;;;;8.47;7.63;;;;;;;;;;5097296;28;20220;-71
2022/07/25 12:14:07;;;;;;;9.10;8.50;;;;;;;;;;5097136;28;20827;-71
2022/07/25 12:16:35;;;;;;;8.93;8.17;;;;;;;;;;5097384;28;20989;-71
2022/07/25 12:19:02;;;;;;;8.60;7.90;;;;;;;;;;5097233;28;20457;-71
2022/07/25 12:21:30;;;;;;;9.33;8.47;;;;;;;;;;5097136;28;20456;-71
2022/07/25 12:23:58;;;;;;;9.07;8.23;;;;;;;;;;5097126;28;20438;-70
2022/07/25 12:26:25;;;;;;;9.70;8.90;;;;;;;;;;5097484;28;20806;-71
2022/07/25 12:28:52;;;;;;;9.83;9.00;;;;;;;;;;5097139;28;20445;-71
2022/07/25 12:31:19;;;;;;;9.83;9.03;;;;;;;;;;5097184;28;20449;-71
2022/07/25 12:33:47;;;;;;;14.67;9.97;;;;;;;;;;5096784;28;20470;-71
2022/07/25 12:36:15;;;;;;;10.20;9.20;;;;;;;;;;5096916;28;20457;-71
2022/07/25 12:38:42;;;;;;;8.87;8.17;;;;;;;;;;5096643;28;20477;-70
2022/07/25 12:41:10;;;;;;;11.90;10.17;;;;;;;;;;5097110;28;20458;-70
2022/07/25 12:43:37;;;;;;;11.07;10.03;;;;;;;;;;5096444;28;20494;-70
2022/07/25 12:46:06;;;;;;;11.60;10.70;;;;;;;;;;5096912;28;20549;-73
2022/07/25 12:48:33;;;;;;;14.90;9.70;;;;;;;;;;5096687;28;20450;-73
2022/07/25 12:51:00;;;;;;;10.57;9.87;;;;;;;;;;5096462;28;20481;-73
2022/07/25 12:53:27;;;;;;;10.57;9.67;;;;;;;;;;5096253;28;21011;-73
2022/07/25 12:55:54;;;;;;;11.43;10.47;;;;;;;;;;5096676;28;20516;-73
2022/07/25 12:58:23;;;;;;;11.93;10.70;;;;;;;;;;5096436;28;20485;-71
2022/07/25 13:00:50;;;;;;;10.40;9.53;;;;;;;;;;5096330;28;20453;-71
2022/07/25 13:03:17;;;;;;;11.10;10.20;;;;;;;;;;5096244;28;20470;-71
2022/07/25 13:05:44;;;;;;;16.37;10.70;;;;;;;;;;5096489;28;20811;-70
2022/07/25 13:08:11;;;;;;;10.50;9.53;;;;;;;;;;5096168;28;20450;-70
2022/07/25 13:10:38;;;;;;;10.67;9.80;;;;;;;;;;5096163;28;20465;-70
2022/07/25 13:13:06;;;;;;;11.07;10.20;;;;;;;;;;5096061;28;20473;-70
2022/07/25 13:15:35;;;;;;;11.00;10.00;;;;;;;;;;5095906;28;20457;-70
2022/07/25 13:18:02;;;;;;;10.23;9.33;;;;;;;;;;5096249;28;20483;-70
2022/07/25 13:20:30;;;;;;;11.13;10.00;;;;;;;;;;5095638;28;20431;-70
2022/07/25 13:22:57;;;;;;;11.60;10.53;;;;;;;;;;5095774;28;20482;-70
2022/07/25 13:25:24;;;;;;;11.90;10.90;;;;;;;;;;5095929;28;20457;-70
2022/07/25 13:27:51;;;;;;;10.60;9.70;;;;;;;;;;5096046;28;20449;-70
2022/07/25 13:30:18;;;;;;;11.13;10.23;;;;;;;;;;5095695;28;20454;-70
2022/07/25 13:32:47;;;;;;;10.63;9.63;;;;;;;;;;5095610;28;20475;-70
2022/07/25 13:35:14;;;;;;;12.03;10.27;;;;;;;;;;5096113;28;20806;-70
2022/07/25 13:37:41;;;;;;;10.90;10.00;;;;;;;;;;5095609;28;20483;-71
2022/07/25 13:40:08;;;;;;;10.70;9.60;;;;;;;;;;5095565;28;20434;-71
2022/07/25 13:42:35;;;;;;;10.20;9.40;;;;;;;;;;5095711;28;20478;-71
2022/07/25 13:45:03;;;;;;;10.80;9.80;;;;;;;;;;5095815;28;20450;-71
2022/07/25 13:47:30;;;;;;;10.50;9.60;;;;;;;;;;5095428;28;20478;-71
2022/07/25 13:49:58;;;;;;;9.63;8.63;;;;;;;;;;5095753;28;20496;-71
2022/07/25 13:52:25;;;;;;;10.00;9.10;;;;;;;;;;5095746;28;20482;-71
2022/07/25 13:54:52;;;;;;;12.23;9.80;;;;;;;;;;5095285;28;20461;-71
2022/07/25 13:57:19;;;;;;;10.93;10.03;;;;;;;;;;5095729;28;21021;-71
2022/07/25 13:59:46;;;;;;;11.27;8.60;;;;;;;;;;5095289;28;20466;-71
2022/07/25 14:02:13;;;;;;;11.70;8.70;;;;;;;;;;5095260;28;20470;-71
2022/07/25 14:04:41;;;;;;;10.33;9.43;;;;;;;;;;5095176;28;20446;-70
2022/07/25 14:07:09;;;;;;;10.00;9.00;;;;;;;;;;5095355;28;20455;-70
2022/07/25 14:09:36;;;;;;;10.60;9.60;;;;;;;;;;5095460;28;20454;-71
2022/07/25 14:12:03;;;;;;;10.70;9.60;;;;;;;;;;5095149;28;20506;-71
2022/07/25 14:14:31;;;;;;;11.40;10.30;;;;;;;;;;5094873;28;20454;-71
2022/07/25 14:16:58;;;;;;;12.20;11.10;;;;;;;;;;5095171;28;20828;-70
2022/07/25 14:19:25;;;;;;;10.50;9.60;;;;;;;;;;5095032;28;20458;-70
2022/07/25 14:21:52;;;;;;;9.43;8.57;;;;;;;;;;5095159;28;20474;-70
2022/07/25 14:24:20;;;;;;;9.77;8.90;;;;;;;;;;5094804;28;20455;-70
2022/07/25 14:26:48;;;;;;;10.77;9.67;;;;;;;;;;5094778;28;20447;-70
2022/07/25 14:29:15;;;;;;;16.03;9.93;;;;;;;;;;5095228;28;20453;-70